createdAt,value
2023-04-07T00:03:07.486Z,18.63
2023-04-07T00:08:29.464Z,18.56
2023-04-07T00:13:51.660Z,18.57
2023-04-07T00:19:13.753Z,18.54
2023-04-07T00:24:35.923Z,18.52
2023-04-07T00:29:57.978Z,18.50
2023-04-07T00:35:19.935Z,18.49
2023-04-07T00:40:41.766Z,18.46
2023-04-07T00:46:04.039Z,18.44
2023-04-07T00:51:27.379Z,18.41
2023-04-07T00:56:49.275Z,18.39
2023-04-07T01:02:22.511Z,18.39
2023-04-07T01:07:46.995Z,18.36
2023-04-07T01:13:25.725Z,18.35
2023-04-07T01:18:51.733Z,18.32
2023-04-07T01:24:13.603Z,18.30
2023-04-07T01:29:38.143Z,18.30
2023-04-07T01:35:00.635Z,18.29
2023-04-07T01:40:23.278Z,18.26
2023-04-07T01:45:46.474Z,18.25
2023-04-07T01:51:09.162Z,18.24
2023-04-07T01:56:31.221Z,18.22
2023-04-07T02:01:53.233Z,18.20
2023-04-07T02:07:35.534Z,18.20
2023-04-07T02:12:59.328Z,18.18
2023-04-07T02:18:22.450Z,18.17
2023-04-07T02:23:44.572Z,18.14
2023-04-07T02:29:06.698Z,18.13
2023-04-07T02:34:28.520Z,18.12
2023-04-07T02:39:50.542Z,18.10
2023-04-07T02:45:13.074Z,18.09
2023-04-07T02:50:34.944Z,18.08
2023-04-07T02:55:56.850Z,18.07
2023-04-07T03:01:18.828Z,18.06
2023-04-07T03:06:40.678Z,18.05
2023-04-07T03:12:02.717Z,18.04
2023-04-07T03:17:24.661Z,18.02
2023-04-07T03:22:47.762Z,18.01
2023-04-07T03:28:09.615Z,18.00
2023-04-07T03:33:31.443Z,17.99
2023-04-07T03:38:53.214Z,17.96
2023-04-07T03:44:15.120Z,17.95
2023-04-07T03:49:38.641Z,17.94
2023-04-07T03:55:00.763Z,17.93
2023-04-07T04:00:22.798Z,17.93
2023-04-07T04:05:44.587Z,17.90
2023-04-07T04:11:06.395Z,17.90
2023-04-07T04:16:28.480Z,17.87
2023-04-07T04:21:51.325Z,17.85
2023-04-07T04:27:13.198Z,17.87
2023-04-07T04:32:35.224Z,17.84
2023-04-07T04:37:57.158Z,17.83
2023-04-07T04:43:19.083Z,17.82
2023-04-07T04:48:41.265Z,17.81
2023-04-07T04:54:04.324Z,17.79
2023-04-07T04:59:27.372Z,17.79
2023-04-07T05:04:49.329Z,17.78
2023-04-07T05:10:11.873Z,17.90
2023-04-07T05:15:33.753Z,18.29
2023-04-07T05:20:55.809Z,18.72
2023-04-07T05:26:17.935Z,19.03
2023-04-07T05:31:41.637Z,19.20
2023-04-07T05:37:03.531Z,19.28
2023-04-07T05:42:25.511Z,19.25
2023-04-07T05:47:50.330Z,19.18
2023-04-07T05:53:12.565Z,19.13
2023-04-07T05:58:34.364Z,19.06
2023-04-07T06:03:56.590Z,18.99
2023-04-07T06:09:18.642Z,18.91
2023-04-07T06:14:40.733Z,18.83
2023-04-07T06:20:02.739Z,18.81
2023-04-07T06:25:24.591Z,18.78
2023-04-07T06:30:47.084Z,18.75
2023-04-07T06:36:08.955Z,18.70
2023-04-07T06:41:32.044Z,18.67
2023-04-07T06:46:55.716Z,18.71
2023-04-07T06:52:17.559Z,18.77
2023-04-07T06:57:39.413Z,18.87
2023-04-07T07:03:01.476Z,18.94
2023-04-07T07:08:23.940Z,18.90
2023-04-07T07:13:46.416Z,18.88
2023-04-07T07:19:08.651Z,18.88
2023-04-07T07:24:31.400Z,18.82
2023-04-07T07:29:53.381Z,18.75
2023-04-07T07:35:16.325Z,18.76
2023-04-07T07:40:38.226Z,18.70
2023-04-07T07:46:00.138Z,18.66
2023-04-07T07:51:22.279Z,18.63
2023-04-07T07:56:44.208Z,18.61
2023-04-07T08:02:07.188Z,18.60
2023-04-07T08:07:29.320Z,18.58
2023-04-07T08:12:51.489Z,18.60
2023-04-07T08:18:13.499Z,18.60
2023-04-07T08:23:35.683Z,18.61
2023-04-07T08:28:58.769Z,18.64
2023-04-07T08:34:21.547Z,18.66
2023-04-07T08:39:43.451Z,18.66
2023-04-07T08:45:07.357Z,18.68
2023-04-07T08:50:29.622Z,18.71
2023-04-07T08:55:51.667Z,18.75
2023-04-07T09:01:14.671Z,18.76
2023-04-07T09:06:37.295Z,18.75
2023-04-07T09:11:59.224Z,18.82
2023-04-07T09:17:21.913Z,18.80
2023-04-07T09:22:47.825Z,18.76
2023-04-07T09:28:09.709Z,18.73
2023-04-07T09:33:31.629Z,18.72
2023-04-07T09:38:54.001Z,18.72
2023-04-07T09:44:16.455Z,18.70
2023-04-07T09:49:53.942Z,18.73
2023-04-07T09:55:16.664Z,18.71
2023-04-07T10:00:38.555Z,18.71
2023-04-07T10:06:01.531Z,18.70
2023-04-07T10:11:23.589Z,18.67
2023-04-07T10:16:47.613Z,18.65
2023-04-07T10:22:13.629Z,18.65
2023-04-07T10:27:58.806Z,18.72
2023-04-07T10:33:58.444Z,18.70
2023-04-07T10:39:21.349Z,18.65
2023-04-07T10:44:43.254Z,18.61
2023-04-07T10:50:22.505Z,18.60
2023-04-07T10:55:45.878Z,18.60
2023-04-07T11:01:08.001Z,18.59
2023-04-07T11:06:29.912Z,18.57
2023-04-07T11:11:52.487Z,18.54
2023-04-07T11:17:20.445Z,18.57
2023-04-07T11:22:42.283Z,18.62
2023-04-07T11:28:05.046Z,18.70
2023-04-07T11:33:29.162Z,18.80
2023-04-07T11:44:13.409Z,19.03
2023-04-07T11:49:35.266Z,19.10
2023-04-07T11:54:59.652Z,19.13
2023-04-07T12:00:21.750Z,19.15
2023-04-07T12:05:45.052Z,19.15
2023-04-07T12:11:08.280Z,19.15
2023-04-07T12:16:30.160Z,19.14
2023-04-07T12:21:52.520Z,19.08
2023-04-07T12:27:14.351Z,19.04
2023-04-07T12:32:36.342Z,18.98
2023-04-07T12:37:58.341Z,18.94
2023-04-07T12:43:20.180Z,18.91
2023-04-07T12:48:42.114Z,18.90
2023-04-07T12:54:04.641Z,18.91
2023-04-07T12:59:26.618Z,18.93
2023-04-07T13:10:10.692Z,18.86
2023-04-07T13:15:32.558Z,18.84
2023-04-07T13:21:10.717Z,18.81
2023-04-07T13:26:36.454Z,18.79
2023-04-07T13:32:13.338Z,18.79
2023-04-07T13:37:35.179Z,18.76
2023-04-07T13:42:57.846Z,18.76
2023-04-07T13:48:19.747Z,18.76
2023-04-07T13:53:41.822Z,18.77
2023-04-07T13:59:03.887Z,18.80
2023-04-07T14:04:26.118Z,18.81
2023-04-07T14:09:48.693Z,18.77
2023-04-07T14:15:10.690Z,18.74
2023-04-07T14:20:33.695Z,18.72
2023-04-07T14:25:55.991Z,18.72
2023-04-07T14:31:18.061Z,18.72
2023-04-07T14:36:39.951Z,18.72
2023-04-07T14:42:02.010Z,18.72
2023-04-07T14:47:24.036Z,18.72
2023-04-07T14:52:45.993Z,18.72
2023-04-07T14:58:08.584Z,18.72
2023-04-07T15:03:30.839Z,18.72
2023-04-07T15:08:53.062Z,18.71
2023-04-07T15:14:15.044Z,18.69
2023-04-07T15:19:37.077Z,18.69
2023-04-07T15:24:59.946Z,18.68
2023-04-07T15:30:21.981Z,18.69
2023-04-07T15:35:44.449Z,18.70
2023-04-07T15:41:06.796Z,18.70
2023-04-07T15:46:28.896Z,18.70
2023-04-07T15:51:51.538Z,18.71
2023-04-07T15:57:13.550Z,18.71
2023-04-07T16:02:37.414Z,18.70
2023-04-07T16:07:59.331Z,18.68
2023-04-07T16:13:21.338Z,18.66
2023-04-07T16:18:43.285Z,18.66
2023-04-07T16:24:05.738Z,18.64
2023-04-07T16:29:28.192Z,18.66
2023-04-07T16:34:50.057Z,18.65
2023-04-07T16:40:12.197Z,18.76
2023-04-07T16:45:33.965Z,18.94
2023-04-07T16:50:55.823Z,19.17
2023-04-07T16:56:18.157Z,19.40
2023-04-07T17:01:42.178Z,19.53
2023-04-07T17:07:04.478Z,19.59
2023-04-07T17:12:26.678Z,19.57
2023-04-07T17:17:48.839Z,19.56
2023-04-07T17:23:11.141Z,19.56
2023-04-07T17:28:33.105Z,19.55
2023-04-07T17:33:54.937Z,19.61
2023-04-07T17:39:17.627Z,19.69
2023-04-07T17:44:39.545Z,19.79
2023-04-07T17:50:02.241Z,19.86
2023-04-07T17:55:24.383Z,19.90
2023-04-07T18:00:46.404Z,19.94
2023-04-07T18:06:11.012Z,19.96
2023-04-07T18:11:33.097Z,19.94
2023-04-07T18:16:55.847Z,19.96
2023-04-07T18:22:18.255Z,19.99
2023-04-07T18:27:40.073Z,19.93
2023-04-07T18:33:02.028Z,19.86
2023-04-07T18:38:23.930Z,19.87
2023-04-07T18:43:48.973Z,19.94
2023-04-07T18:49:11.037Z,20.14
2023-04-07T18:54:32.926Z,20.49
2023-04-07T18:59:55.308Z,20.92
2023-04-07T19:05:18.530Z,21.35
2023-04-07T19:10:43.988Z,21.57
2023-04-07T19:16:07.831Z,21.68
2023-04-07T19:21:29.696Z,21.72
2023-04-07T19:26:53.022Z,21.74
2023-04-07T19:32:14.948Z,21.70
2023-04-07T19:37:38.240Z,21.62
2023-04-07T19:43:00.798Z,21.47
2023-04-07T19:48:22.852Z,21.31
2023-04-07T19:53:44.662Z,21.15
2023-04-07T19:59:08.474Z,21.03
2023-04-07T20:04:30.631Z,21.01
2023-04-07T20:09:54.246Z,20.98
2023-04-07T20:15:17.139Z,20.93
2023-04-07T20:20:39.000Z,20.93
2023-04-07T20:26:02.207Z,20.96
2023-04-07T20:31:24.258Z,20.95
2023-04-07T20:36:46.812Z,20.94
2023-04-07T20:42:08.762Z,20.89
2023-04-07T20:47:31.579Z,20.82
2023-04-07T20:52:54.108Z,20.76
2023-04-07T20:58:17.897Z,20.71
2023-04-07T21:03:40.009Z,20.67
2023-04-07T21:09:02.799Z,20.58
2023-04-07T21:14:24.645Z,20.48
2023-04-07T21:19:46.682Z,20.39
2023-04-07T21:25:08.981Z,20.31
2023-04-07T21:30:31.591Z,20.21
2023-04-07T21:35:55.315Z,20.14
2023-04-07T21:41:17.519Z,20.06
2023-04-07T21:46:39.462Z,19.97
2023-04-07T21:52:01.387Z,19.89
2023-04-07T21:57:23.690Z,19.81
2023-04-07T22:02:45.888Z,19.75
2023-04-07T22:08:08.009Z,19.67
2023-04-07T22:13:29.858Z,19.60
2023-04-07T22:18:51.892Z,19.54
2023-04-07T22:24:13.727Z,19.49
2023-04-07T22:29:35.616Z,19.45
2023-04-07T22:34:58.196Z,19.40
2023-04-07T22:40:20.031Z,19.34
2023-04-07T22:45:42.049Z,19.30
2023-04-07T22:51:03.981Z,19.26
2023-04-07T22:56:26.738Z,19.21
2023-04-07T23:01:48.766Z,19.18
2023-04-07T23:07:10.754Z,19.15
2023-04-07T23:12:32.580Z,19.13
2023-04-07T23:17:54.968Z,19.10
2023-04-07T23:23:16.933Z,19.07
2023-04-07T23:28:38.784Z,19.04
2023-04-07T23:34:01.565Z,19.01
2023-04-07T23:39:23.427Z,18.99
2023-04-07T23:44:45.331Z,18.96
2023-04-07T23:50:07.978Z,18.91
2023-04-07T23:55:29.812Z,18.90
